sensor_id;sensor_type;location;lat;lon;timestamp;P1;durP1;ratioP1;P2;durP2;ratioP2
24637;SDS011;12773;50.162;8.548;2023-11-19T00:00:45;31.27;;;14.28;;
24637;SDS011;12773;50.162;8.548;2023-11-19T00:03:34;29.57;;;13.43;;
24637;SDS011;12773;50.162;8.548;2023-11-19T00:06:21;31.37;;;13.10;;
24637;SDS011;12773;50.162;8.548;2023-11-19T00:09:11;29.23;;;13.43;;
24637;SDS011;12773;50.162;8.548;2023-11-19T00:11:58;37.98;;;13.68;;
24637;SDS011;12773;50.162;8.548;2023-11-19T00:14:47;29.02;;;12.98;;
24637;SDS011;12773;50.162;8.548;2023-11-19T00:17:35;32.63;;;13.28;;
24637;SDS011;12773;50.162;8.548;2023-11-19T00:20:22;37.38;;;14.58;;
24637;SDS011;12773;50.162;8.548;2023-11-19T00:23:10;38.98;;;14.95;;
24637;SDS011;12773;50.162;8.548;2023-11-19T00:25:57;33.67;;;14.53;;
24637;SDS011;12773;50.162;8.548;2023-11-19T00:28:45;40.10;;;14.47;;
24637;SDS011;12773;50.162;8.548;2023-11-19T00:31:33;34.78;;;14.78;;
24637;SDS011;12773;50.162;8.548;2023-11-19T00:34:21;33.80;;;14.55;;
24637;SDS011;12773;50.162;8.548;2023-11-19T00:37:09;38.00;;;15.18;;
24637;SDS011;12773;50.162;8.548;2023-11-19T00:39:56;39.27;;;15.90;;
24637;SDS011;12773;50.162;8.548;2023-11-19T00:42:43;35.75;;;15.30;;
24637;SDS011;12773;50.162;8.548;2023-11-19T00:45:31;36.33;;;14.60;;
24637;SDS011;12773;50.162;8.548;2023-11-19T00:48:18;34.45;;;14.73;;
24637;SDS011;12773;50.162;8.548;2023-11-19T00:51:06;40.10;;;15.72;;
24637;SDS011;12773;50.162;8.548;2023-11-19T00:53:54;41.15;;;15.48;;
24637;SDS011;12773;50.162;8.548;2023-11-19T00:56:41;34.88;;;13.95;;
24637;SDS011;12773;50.162;8.548;2023-11-19T00:59:30;33.63;;;13.70;;
24637;SDS011;12773;50.162;8.548;2023-11-19T01:02:18;37.23;;;14.85;;
24637;SDS011;12773;50.162;8.548;2023-11-19T01:05:07;36.10;;;15.35;;
24637;SDS011;12773;50.162;8.548;2023-11-19T01:07:55;38.48;;;15.85;;
24637;SDS011;12773;50.162;8.548;2023-11-19T01:10:42;37.35;;;15.03;;
24637;SDS011;12773;50.162;8.548;2023-11-19T01:13:31;35.90;;;15.08;;
24637;SDS011;12773;50.162;8.548;2023-11-19T01:16:19;36.83;;;16.40;;
24637;SDS011;12773;50.162;8.548;2023-11-19T01:19:08;35.65;;;15.53;;
24637;SDS011;12773;50.162;8.548;2023-11-19T01:21:58;37.85;;;14.87;;
24637;SDS011;12773;50.162;8.548;2023-11-19T01:24:45;33.48;;;15.40;;
24637;SDS011;12773;50.162;8.548;2023-11-19T01:27:33;37.65;;;16.07;;
24637;SDS011;12773;50.162;8.548;2023-11-19T01:30:21;32.30;;;14.55;;
24637;SDS011;12773;50.162;8.548;2023-11-19T01:33:08;34.60;;;14.95;;
24637;SDS011;12773;50.162;8.548;2023-11-19T01:35:56;39.40;;;16.02;;
24637;SDS011;12773;50.162;8.548;2023-11-19T01:38:44;34.03;;;14.95;;
24637;SDS011;12773;50.162;8.548;2023-11-19T01:41:35;37.85;;;15.15;;
24637;SDS011;12773;50.162;8.548;2023-11-19T01:44:24;37.73;;;15.68;;
24637;SDS011;12773;50.162;8.548;2023-11-19T01:47:12;39.75;;;15.48;;
24637;SDS011;12773;50.162;8.548;2023-11-19T01:50:00;40.85;;;15.58;;
24637;SDS011;12773;50.162;8.548;2023-11-19T01:52:52;37.08;;;14.93;;
24637;SDS011;12773;50.162;8.548;2023-11-19T01:55:42;38.35;;;15.60;;
24637;SDS011;12773;50.162;8.548;2023-11-19T01:58:30;40.92;;;15.93;;
24637;SDS011;12773;50.162;8.548;2023-11-19T02:01:18;42.75;;;16.40;;
24637;SDS011;12773;50.162;8.548;2023-11-19T02:04:07;46.23;;;17.23;;
24637;SDS011;12773;50.162;8.548;2023-11-19T02:06:56;39.78;;;16.50;;
24637;SDS011;12773;50.162;8.548;2023-11-19T02:09:44;42.83;;;16.70;;
24637;SDS011;12773;50.162;8.548;2023-11-19T02:12:32;46.50;;;17.17;;
24637;SDS011;12773;50.162;8.548;2023-11-19T02:15:22;50.35;;;18.32;;
24637;SDS011;12773;50.162;8.548;2023-11-19T02:18:22;44.48;;;17.23;;
24637;SDS011;12773;50.162;8.548;2023-11-19T02:21:14;40.60;;;17.82;;
24637;SDS011;12773;50.162;8.548;2023-11-19T02:24:03;45.45;;;17.92;;
24637;SDS011;12773;50.162;8.548;2023-11-19T02:27:02;48.63;;;18.17;;
24637;SDS011;12773;50.162;8.548;2023-11-19T02:29:55;43.13;;;16.52;;
24637;SDS011;12773;50.162;8.548;2023-11-19T02:32:43;40.98;;;17.37;;
24637;SDS011;12773;50.162;8.548;2023-11-19T02:35:32;44.42;;;17.42;;
24637;SDS011;12773;50.162;8.548;2023-11-19T02:38:19;42.10;;;17.07;;
24637;SDS011;12773;50.162;8.548;2023-11-19T02:41:07;41.08;;;16.50;;
24637;SDS011;12773;50.162;8.548;2023-11-19T02:43:55;41.95;;;16.95;;
24637;SDS011;12773;50.162;8.548;2023-11-19T02:46:43;40.30;;;16.32;;
24637;SDS011;12773;50.162;8.548;2023-11-19T02:49:33;39.00;;;16.02;;
24637;SDS011;12773;50.162;8.548;2023-11-19T02:52:20;38.67;;;16.07;;
24637;SDS011;12773;50.162;8.548;2023-11-19T02:55:09;41.65;;;17.20;;
24637;SDS011;12773;50.162;8.548;2023-11-19T02:57:58;46.13;;;16.17;;
24637;SDS011;12773;50.162;8.548;2023-11-19T03:00:46;36.30;;;15.48;;
24637;SDS011;12773;50.162;8.548;2023-11-19T03:03:35;32.17;;;14.58;;
24637;SDS011;12773;50.162;8.548;2023-11-19T03:06:26;34.53;;;15.55;;
24637;SDS011;12773;50.162;8.548;2023-11-19T03:09:14;36.42;;;15.45;;
24637;SDS011;12773;50.162;8.548;2023-11-19T03:12:02;37.45;;;15.13;;
24637;SDS011;12773;50.162;8.548;2023-11-19T03:14:51;32.95;;;14.47;;
24637;SDS011;12773;50.162;8.548;2023-11-19T03:17:39;35.05;;;15.03;;
24637;SDS011;12773;50.162;8.548;2023-11-19T03:20:27;33.10;;;13.95;;
24637;SDS011;12773;50.162;8.548;2023-11-19T03:23:15;34.65;;;14.05;;
24637;SDS011;12773;50.162;8.548;2023-11-19T03:26:03;36.23;;;13.50;;
24637;SDS011;12773;50.162;8.548;2023-11-19T03:28:51;32.40;;;13.13;;
24637;SDS011;12773;50.162;8.548;2023-11-19T03:31:43;30.50;;;12.90;;
24637;SDS011;12773;50.162;8.548;2023-11-19T03:34:30;31.52;;;12.78;;
24637;SDS011;12773;50.162;8.548;2023-11-19T03:37:18;31.17;;;11.28;;
24637;SDS011;12773;50.162;8.548;2023-11-19T03:40:05;26.77;;;11.40;;
24637;SDS011;12773;50.162;8.548;2023-11-19T03:42:53;28.75;;;12.07;;
24637;SDS011;12773;50.162;8.548;2023-11-19T03:45:43;26.48;;;11.48;;
24637;SDS011;12773;50.162;8.548;2023-11-19T03:48:32;27.85;;;11.68;;
24637;SDS011;12773;50.162;8.548;2023-11-19T03:51:20;31.62;;;12.80;;
24637;SDS011;12773;50.162;8.548;2023-11-19T03:54:07;29.95;;;12.63;;
24637;SDS011;12773;50.162;8.548;2023-11-19T03:56:55;31.75;;;13.32;;
24637;SDS011;12773;50.162;8.548;2023-11-19T03:59:43;36.73;;;14.47;;
24637;SDS011;12773;50.162;8.548;2023-11-19T04:02:30;36.68;;;14.28;;
24637;SDS011;12773;50.162;8.548;2023-11-19T04:05:18;39.50;;;14.00;;
24637;SDS011;12773;50.162;8.548;2023-11-19T04:08:05;37.63;;;14.30;;
24637;SDS011;12773;50.162;8.548;2023-11-19T04:10:53;40.28;;;13.53;;
24637;SDS011;12773;50.162;8.548;2023-11-19T04:13:41;29.63;;;12.43;;
24637;SDS011;12773;50.162;8.548;2023-11-19T04:16:29;29.05;;;12.25;;
24637;SDS011;12773;50.162;8.548;2023-11-19T04:19:18;27.62;;;11.83;;
24637;SDS011;12773;50.162;8.548;2023-11-19T04:22:06;27.00;;;11.43;;
24637;SDS011;12773;50.162;8.548;2023-11-19T04:24:56;34.90;;;12.70;;
24637;SDS011;12773;50.162;8.548;2023-11-19T04:27:44;29.85;;;12.35;;
24637;SDS011;12773;50.162;8.548;2023-11-19T04:30:33;35.83;;;13.93;;
24637;SDS011;12773;50.162;8.548;2023-11-19T04:33:21;33.67;;;12.95;;
24637;SDS011;12773;50.162;8.548;2023-11-19T04:36:09;30.88;;;12.47;;
24637;SDS011;12773;50.162;8.548;2023-11-19T04:38:57;29.35;;;12.73;;
24637;SDS011;12773;50.162;8.548;2023-11-19T04:41:50;28.27;;;12.07;;
24637;SDS011;12773;50.162;8.548;2023-11-19T04:44:40;31.42;;;12.63;;
24637;SDS011;12773;50.162;8.548;2023-11-19T04:47:30;35.38;;;12.95;;
24637;SDS011;12773;50.162;8.548;2023-11-19T04:50:17;30.08;;;12.45;;
24637;SDS011;12773;50.162;8.548;2023-11-19T04:53:05;29.07;;;11.25;;
24637;SDS011;12773;50.162;8.548;2023-11-19T04:55:52;30.45;;;11.85;;
24637;SDS011;12773;50.162;8.548;2023-11-19T04:58:40;28.50;;;11.12;;
24637;SDS011;12773;50.162;8.548;2023-11-19T05:01:27;25.17;;;10.55;;
24637;SDS011;12773;50.162;8.548;2023-11-19T05:04:15;26.77;;;11.57;;
24637;SDS011;12773;50.162;8.548;2023-11-19T05:07:05;26.33;;;10.82;;
24637;SDS011;12773;50.162;8.548;2023-11-19T05:09:53;28.10;;;10.98;;
24637;SDS011;12773;50.162;8.548;2023-11-19T05:12:40;22.98;;;9.53;;
24637;SDS011;12773;50.162;8.548;2023-11-19T05:15:28;22.60;;;8.40;;
24637;SDS011;12773;50.162;8.548;2023-11-19T05:18:15;18.98;;;8.08;;
24637;SDS011;12773;50.162;8.548;2023-11-19T05:21:03;18.52;;;8.25;;
24637;SDS011;12773;50.162;8.548;2023-11-19T05:23:50;22.27;;;9.00;;
24637;SDS011;12773;50.162;8.548;2023-11-19T05:26:38;24.85;;;9.63;;
24637;SDS011;12773;50.162;8.548;2023-11-19T05:29:26;25.12;;;8.80;;
24637;SDS011;12773;50.162;8.548;2023-11-19T05:32:15;20.50;;;8.93;;
24637;SDS011;12773;50.162;8.548;2023-11-19T05:35:02;22.73;;;9.70;;
24637;SDS011;12773;50.162;8.548;2023-11-19T05:37:50;21.82;;;9.25;;
24637;SDS011;12773;50.162;8.548;2023-11-19T05:40:37;23.98;;;9.68;;
24637;SDS011;12773;50.162;8.548;2023-11-19T05:43:25;36.73;;;10.08;;
24637;SDS011;12773;50.162;8.548;2023-11-19T05:46:15;25.85;;;9.63;;
24637;SDS011;12773;50.162;8.548;2023-11-19T05:49:04;26.33;;;9.90;;
24637;SDS011;12773;50.162;8.548;2023-11-19T05:51:52;27.67;;;9.30;;
24637;SDS011;12773;50.162;8.548;2023-11-19T05:54:41;32.53;;;10.48;;
24637;SDS011;12773;50.162;8.548;2023-11-19T05:57:29;38.33;;;10.08;;
24637;SDS011;12773;50.162;8.548;2023-11-19T06:00:20;32.75;;;10.10;;
24637;SDS011;12773;50.162;8.548;2023-11-19T06:03:08;42.40;;;8.90;;
24637;SDS011;12773;50.162;8.548;2023-11-19T06:05:55;29.02;;;9.80;;
24637;SDS011;12773;50.162;8.548;2023-11-19T06:08:43;26.62;;;9.35;;
24637;SDS011;12773;50.162;8.548;2023-11-19T06:11:31;27.30;;;9.25;;
24637;SDS011;12773;50.162;8.548;2023-11-19T06:14:20;32.38;;;8.88;;
24637;SDS011;12773;50.162;8.548;2023-11-19T06:17:07;25.48;;;8.98;;
24637;SDS011;12773;50.162;8.548;2023-11-19T06:19:56;26.68;;;9.18;;
24637;SDS011;12773;50.162;8.548;2023-11-19T06:22:44;27.22;;;9.73;;
24637;SDS011;12773;50.162;8.548;2023-11-19T06:25:31;28.35;;;9.40;;
24637;SDS011;12773;50.162;8.548;2023-11-19T06:28:21;30.10;;;10.18;;
24637;SDS011;12773;50.162;8.548;2023-11-19T06:31:08;31.55;;;9.73;;
24637;SDS011;12773;50.162;8.548;2023-11-19T06:33:56;28.45;;;9.15;;
24637;SDS011;12773;50.162;8.548;2023-11-19T06:36:44;30.88;;;8.50;;
24637;SDS011;12773;50.162;8.548;2023-11-19T06:39:31;29.77;;;8.28;;
24637;SDS011;12773;50.162;8.548;2023-11-19T06:42:20;27.65;;;8.28;;
24637;SDS011;12773;50.162;8.548;2023-11-19T06:45:08;28.10;;;8.38;;
24637;SDS011;12773;50.162;8.548;2023-11-19T06:47:56;28.23;;;8.03;;
24637;SDS011;12773;50.162;8.548;2023-11-19T06:50:44;23.90;;;7.40;;
24637;SDS011;12773;50.162;8.548;2023-11-19T06:53:31;23.32;;;6.87;;
24637;SDS011;12773;50.162;8.548;2023-11-19T06:56:22;25.77;;;7.50;;
24637;SDS011;12773;50.162;8.548;2023-11-19T06:59:10;22.90;;;6.65;;
24637;SDS011;12773;50.162;8.548;2023-11-19T07:01:58;18.12;;;6.22;;
24637;SDS011;12773;50.162;8.548;2023-11-19T07:04:46;15.43;;;5.45;;
24637;SDS011;12773;50.162;8.548;2023-11-19T07:07:33;17.65;;;5.40;;
24637;SDS011;12773;50.162;8.548;2023-11-19T07:10:21;19.80;;;5.50;;
24637;SDS011;12773;50.162;8.548;2023-11-19T07:13:09;15.60;;;5.28;;
24637;SDS011;12773;50.162;8.548;2023-11-19T07:15:56;18.87;;;6.28;;
24637;SDS011;12773;50.162;8.548;2023-11-19T07:18:44;15.98;;;4.90;;
24637;SDS011;12773;50.162;8.548;2023-11-19T07:21:32;15.10;;;5.05;;
24637;SDS011;12773;50.162;8.548;2023-11-19T07:24:20;14.98;;;4.78;;
24637;SDS011;12773;50.162;8.548;2023-11-19T07:27:08;11.90;;;4.08;;
24637;SDS011;12773;50.162;8.548;2023-11-19T07:29:56;11.83;;;4.45;;
24637;SDS011;12773;50.162;8.548;2023-11-19T07:32:43;10.20;;;3.55;;
24637;SDS011;12773;50.162;8.548;2023-11-19T07:35:31;13.10;;;3.87;;
24637;SDS011;12773;50.162;8.548;2023-11-19T07:38:18;14.23;;;4.97;;
24637;SDS011;12773;50.162;8.548;2023-11-19T07:41:06;9.83;;;4.28;;
24637;SDS011;12773;50.162;8.548;2023-11-19T07:43:55;13.95;;;4.45;;
24637;SDS011;12773;50.162;8.548;2023-11-19T07:46:43;9.30;;;4.10;;
24637;SDS011;12773;50.162;8.548;2023-11-19T07:49:31;10.90;;;4.87;;
24637;SDS011;12773;50.162;8.548;2023-11-19T07:52:18;13.68;;;4.55;;
24637;SDS011;12773;50.162;8.548;2023-11-19T07:55:07;14.13;;;4.83;;
24637;SDS011;12773;50.162;8.548;2023-11-19T07:57:54;14.35;;;4.58;;
24637;SDS011;12773;50.162;8.548;2023-11-19T08:00:42;9.75;;;3.98;;
24637;SDS011;12773;50.162;8.548;2023-11-19T08:03:30;10.43;;;4.47;;
24637;SDS011;12773;50.162;8.548;2023-11-19T08:06:18;10.23;;;4.35;;
24637;SDS011;12773;50.162;8.548;2023-11-19T08:09:05;8.98;;;3.85;;
24637;SDS011;12773;50.162;8.548;2023-11-19T08:11:54;9.95;;;3.37;;
24637;SDS011;12773;50.162;8.548;2023-11-19T08:14:42;11.60;;;4.58;;
24637;SDS011;12773;50.162;8.548;2023-11-19T08:17:30;7.87;;;3.52;;
24637;SDS011;12773;50.162;8.548;2023-11-19T08:20:17;20.37;;;6.50;;
24637;SDS011;12773;50.162;8.548;2023-11-19T08:23:05;23.60;;;7.97;;
24637;SDS011;12773;50.162;8.548;2023-11-19T08:25:53;26.07;;;8.78;;
24637;SDS011;12773;50.162;8.548;2023-11-19T08:28:41;77.10;;;29.72;;
24637;SDS011;12773;50.162;8.548;2023-11-19T08:31:28;61.50;;;22.17;;
24637;SDS011;12773;50.162;8.548;2023-11-19T08:34:16;68.12;;;28.57;;
24637;SDS011;12773;50.162;8.548;2023-11-19T08:37:04;36.03;;;12.55;;
24637;SDS011;12773;50.162;8.548;2023-11-19T08:39:52;36.53;;;11.05;;
24637;SDS011;12773;50.162;8.548;2023-11-19T08:42:39;32.98;;;10.32;;
24637;SDS011;12773;50.162;8.548;2023-11-19T08:45:27;39.63;;;11.83;;
24637;SDS011;12773;50.162;8.548;2023-11-19T08:48:14;58.68;;;26.62;;
24637;SDS011;12773;50.162;8.548;2023-11-19T08:51:02;48.38;;;21.33;;
24637;SDS011;12773;50.162;8.548;2023-11-19T08:53:50;42.00;;;17.48;;
24637;SDS011;12773;50.162;8.548;2023-11-19T08:56:38;45.85;;;15.85;;
24637;SDS011;12773;50.162;8.548;2023-11-19T08:59:25;43.95;;;15.48;;
24637;SDS011;12773;50.162;8.548;2023-11-19T09:02:13;27.45;;;9.60;;
24637;SDS011;12773;50.162;8.548;2023-11-19T09:05:04;34.38;;;9.08;;
24637;SDS011;12773;50.162;8.548;2023-11-19T09:07:53;26.30;;;8.08;;
24637;SDS011;12773;50.162;8.548;2023-11-19T09:10:40;22.25;;;9.18;;
24637;SDS011;12773;50.162;8.548;2023-11-19T09:13:28;23.67;;;8.08;;
24637;SDS011;12773;50.162;8.548;2023-11-19T09:16:15;26.60;;;9.73;;
24637;SDS011;12773;50.162;8.548;2023-11-19T09:19:02;21.62;;;8.73;;
24637;SDS011;12773;50.162;8.548;2023-11-19T09:21:52;31.75;;;8.78;;
24637;SDS011;12773;50.162;8.548;2023-11-19T09:24:40;13.75;;;5.20;;
24637;SDS011;12773;50.162;8.548;2023-11-19T09:27:29;7.03;;;3.00;;
24637;SDS011;12773;50.162;8.548;2023-11-19T09:30:17;7.15;;;2.37;;
24637;SDS011;12773;50.162;8.548;2023-11-19T09:33:04;9.53;;;1.90;;
24637;SDS011;12773;50.162;8.548;2023-11-19T09:35:52;6.83;;;1.82;;
24637;SDS011;12773;50.162;8.548;2023-11-19T09:38:40;11.55;;;2.15;;
24637;SDS011;12773;50.162;8.548;2023-11-19T09:41:28;9.30;;;1.45;;
24637;SDS011;12773;50.162;8.548;2023-11-19T09:44:17;9.90;;;1.80;;
24637;SDS011;12773;50.162;8.548;2023-11-19T09:47:05;11.40;;;1.60;;
24637;SDS011;12773;50.162;8.548;2023-11-19T09:49:54;10.10;;;1.92;;
24637;SDS011;12773;50.162;8.548;2023-11-19T09:52:43;10.32;;;2.05;;
24637;SDS011;12773;50.162;8.548;2023-11-19T09:55:31;12.85;;;1.45;;
24637;SDS011;12773;50.162;8.548;2023-11-19T09:58:19;13.90;;;2.15;;
24637;SDS011;12773;50.162;8.548;2023-11-19T10:01:06;13.25;;;1.72;;
24637;SDS011;12773;50.162;8.548;2023-11-19T10:03:57;7.75;;;1.40;;
24637;SDS011;12773;50.162;8.548;2023-11-19T10:06:45;7.25;;;1.45;;
24637;SDS011;12773;50.162;8.548;2023-11-19T10:09:33;6.85;;;1.67;;
24637;SDS011;12773;50.162;8.548;2023-11-19T10:12:21;15.45;;;1.50;;
24637;SDS011;12773;50.162;8.548;2023-11-19T10:15:08;14.70;;;1.85;;
24637;SDS011;12773;50.162;8.548;2023-11-19T10:17:58;11.65;;;1.52;;
24637;SDS011;12773;50.162;8.548;2023-11-19T10:20:46;12.33;;;1.82;;
24637;SDS011;12773;50.162;8.548;2023-11-19T10:23:55;8.75;;;1.47;;
24637;SDS011;12773;50.162;8.548;2023-11-19T10:26:39;7.45;;;1.52;;
24637;SDS011;12773;50.162;8.548;2023-11-19T10:29:29;12.73;;;1.55;;
24637;SDS011;12773;50.162;8.548;2023-11-19T10:32:16;8.80;;;1.40;;
24637;SDS011;12773;50.162;8.548;2023-11-19T10:35:05;8.98;;;1.75;;
24637;SDS011;12773;50.162;8.548;2023-11-19T10:37:53;9.95;;;1.90;;
24637;SDS011;12773;50.162;8.548;2023-11-19T10:40:41;4.45;;;1.35;;
24637;SDS011;12773;50.162;8.548;2023-11-19T10:43:28;7.17;;;1.32;;
24637;SDS011;12773;50.162;8.548;2023-11-19T10:46:16;9.10;;;1.60;;
24637;SDS011;12773;50.162;8.548;2023-11-19T10:49:06;10.40;;;1.70;;
24637;SDS011;12773;50.162;8.548;2023-11-19T10:51:54;7.17;;;1.70;;
24637;SDS011;12773;50.162;8.548;2023-11-19T10:54:44;13.13;;;1.50;;
24637;SDS011;12773;50.162;8.548;2023-11-19T10:57:33;12.43;;;1.62;;
24637;SDS011;12773;50.162;8.548;2023-11-19T11:00:23;11.73;;;1.52;;
24637;SDS011;12773;50.162;8.548;2023-11-19T11:03:19;10.63;;;2.02;;
24637;SDS011;12773;50.162;8.548;2023-11-19T11:06:08;12.53;;;1.60;;
24637;SDS011;12773;50.162;8.548;2023-11-19T11:08:56;13.32;;;2.08;;
24637;SDS011;12773;50.162;8.548;2023-11-19T11:11:46;10.75;;;2.20;;
24637;SDS011;12773;50.162;8.548;2023-11-19T11:14:34;14.78;;;1.87;;
24637;SDS011;12773;50.162;8.548;2023-11-19T11:17:26;10.72;;;1.87;;
24637;SDS011;12773;50.162;8.548;2023-11-19T11:20:17;14.63;;;1.80;;
24637;SDS011;12773;50.162;8.548;2023-11-19T11:29:26;14.15;;;1.60;;
24637;SDS011;12773;50.162;8.548;2023-11-19T11:35:20;14.55;;;2.40;;
24637;SDS011;12773;50.162;8.548;2023-11-19T11:38:10;17.32;;;2.00;;
24637;SDS011;12773;50.162;8.548;2023-11-19T11:44:06;13.53;;;1.77;;
24637;SDS011;12773;50.162;8.548;2023-11-19T11:46:55;17.67;;;2.52;;
24637;SDS011;12773;50.162;8.548;2023-11-19T11:49:43;15.40;;;2.00;;
24637;SDS011;12773;50.162;8.548;2023-11-19T11:52:31;13.43;;;2.15;;
24637;SDS011;12773;50.162;8.548;2023-11-19T11:55:22;12.40;;;1.80;;
24637;SDS011;12773;50.162;8.548;2023-11-19T11:58:11;9.78;;;2.05;;
24637;SDS011;12773;50.162;8.548;2023-11-19T12:01:01;14.78;;;2.15;;
24637;SDS011;12773;50.162;8.548;2023-11-19T12:03:51;12.05;;;1.75;;
24637;SDS011;12773;50.162;8.548;2023-11-19T12:06:41;12.50;;;1.90;;
24637;SDS011;12773;50.162;8.548;2023-11-19T12:09:28;11.53;;;2.40;;
24637;SDS011;12773;50.162;8.548;2023-11-19T12:12:20;12.75;;;2.30;;
24637;SDS011;12773;50.162;8.548;2023-11-19T12:15:08;7.35;;;1.27;;
24637;SDS011;12773;50.162;8.548;2023-11-19T12:17:57;15.00;;;1.70;;
24637;SDS011;12773;50.162;8.548;2023-11-19T12:20:45;12.45;;;1.40;;
24637;SDS011;12773;50.162;8.548;2023-11-19T12:23:32;22.17;;;2.15;;
24637;SDS011;12773;50.162;8.548;2023-11-19T12:26:35;13.43;;;1.95;;
24637;SDS011;12773;50.162;8.548;2023-11-19T12:29:20;10.03;;;1.40;;
24637;SDS011;12773;50.162;8.548;2023-11-19T12:32:08;12.73;;;1.50;;
24637;SDS011;12773;50.162;8.548;2023-11-19T12:34:56;14.50;;;1.85;;
24637;SDS011;12773;50.162;8.548;2023-11-19T12:37:44;9.93;;;1.50;;
24637;SDS011;12773;50.162;8.548;2023-11-19T12:40:33;15.13;;;1.87;;
24637;SDS011;12773;50.162;8.548;2023-11-19T12:43:22;13.70;;;1.57;;
24637;SDS011;12773;50.162;8.548;2023-11-19T12:46:17;12.33;;;1.40;;
24637;SDS011;12773;50.162;8.548;2023-11-19T12:51:54;8.27;;;1.50;;
24637;SDS011;12773;50.162;8.548;2023-11-19T12:54:41;9.48;;;1.00;;
24637;SDS011;12773;50.162;8.548;2023-11-19T12:57:35;15.70;;;1.80;;
24637;SDS011;12773;50.162;8.548;2023-11-19T13:00:25;15.78;;;2.30;;
24637;SDS011;12773;50.162;8.548;2023-11-19T13:03:14;8.35;;;1.37;;
24637;SDS011;12773;50.162;8.548;2023-11-19T13:06:08;9.28;;;1.52;;
24637;SDS011;12773;50.162;8.548;2023-11-19T13:09:01;8.65;;;1.35;;
24637;SDS011;12773;50.162;8.548;2023-11-19T13:11:49;8.80;;;1.30;;
24637;SDS011;12773;50.162;8.548;2023-11-19T13:14:37;9.80;;;1.20;;
24637;SDS011;12773;50.162;8.548;2023-11-19T13:17:25;14.50;;;1.50;;
24637;SDS011;12773;50.162;8.548;2023-11-19T13:20:13;13.05;;;1.98;;
24637;SDS011;12773;50.162;8.548;2023-11-19T13:23:05;8.08;;;1.50;;
24637;SDS011;12773;50.162;8.548;2023-11-19T13:25:53;8.43;;;1.27;;
24637;SDS011;12773;50.162;8.548;2023-11-19T13:28:41;11.83;;;1.75;;
24637;SDS011;12773;50.162;8.548;2023-11-19T13:31:28;9.70;;;2.08;;
24637;SDS011;12773;50.162;8.548;2023-11-19T13:34:16;8.95;;;1.27;;
24637;SDS011;12773;50.162;8.548;2023-11-19T13:37:03;8.50;;;1.57;;
24637;SDS011;12773;50.162;8.548;2023-11-19T13:39:51;7.55;;;1.30;;
24637;SDS011;12773;50.162;8.548;2023-11-19T13:42:39;11.65;;;2.00;;
24637;SDS011;12773;50.162;8.548;2023-11-19T13:45:28;10.40;;;1.65;;
24637;SDS011;12773;50.162;8.548;2023-11-19T13:48:16;10.63;;;1.27;;
24637;SDS011;12773;50.162;8.548;2023-11-19T13:51:03;6.92;;;1.35;;
24637;SDS011;12773;50.162;8.548;2023-11-19T13:53:51;9.53;;;1.30;;
24637;SDS011;12773;50.162;8.548;2023-11-19T13:56:40;8.50;;;1.37;;
24637;SDS011;12773;50.162;8.548;2023-11-19T13:59:28;8.65;;;1.22;;
24637;SDS011;12773;50.162;8.548;2023-11-19T14:02:18;11.53;;;1.50;;
24637;SDS011;12773;50.162;8.548;2023-11-19T14:05:06;9.93;;;1.60;;
24637;SDS011;12773;50.162;8.548;2023-11-19T14:07:54;12.35;;;1.55;;
24637;SDS011;12773;50.162;8.548;2023-11-19T14:10:42;12.65;;;1.55;;
24637;SDS011;12773;50.162;8.548;2023-11-19T14:13:30;11.63;;;1.50;;
24637;SDS011;12773;50.162;8.548;2023-11-19T14:16:17;15.58;;;2.40;;
24637;SDS011;12773;50.162;8.548;2023-11-19T14:19:04;10.15;;;1.80;;
24637;SDS011;12773;50.162;8.548;2023-11-19T14:21:52;12.15;;;1.72;;
24637;SDS011;12773;50.162;8.548;2023-11-19T14:24:40;12.53;;;1.45;;
24637;SDS011;12773;50.162;8.548;2023-11-19T14:27:28;11.33;;;1.05;;
24637;SDS011;12773;50.162;8.548;2023-11-19T14:30:16;7.47;;;1.37;;
24637;SDS011;12773;50.162;8.548;2023-11-19T14:33:04;10.15;;;2.15;;
24637;SDS011;12773;50.162;8.548;2023-11-19T14:35:51;10.05;;;1.30;;
24637;SDS011;12773;50.162;8.548;2023-11-19T14:38:38;10.65;;;1.20;;
24637;SDS011;12773;50.162;8.548;2023-11-19T14:41:26;7.08;;;1.10;;
24637;SDS011;12773;50.162;8.548;2023-11-19T14:44:14;10.85;;;1.40;;
24637;SDS011;12773;50.162;8.548;2023-11-19T14:47:02;9.13;;;1.47;;
24637;SDS011;12773;50.162;8.548;2023-11-19T14:49:51;15.50;;;1.67;;
24637;SDS011;12773;50.162;8.548;2023-11-19T14:52:38;11.05;;;1.62;;
24637;SDS011;12773;50.162;8.548;2023-11-19T14:55:36;10.90;;;1.50;;
24637;SDS011;12773;50.162;8.548;2023-11-19T14:58:17;8.48;;;1.15;;
24637;SDS011;12773;50.162;8.548;2023-11-19T15:01:05;9.10;;;1.40;;
24637;SDS011;12773;50.162;8.548;2023-11-19T15:03:53;17.30;;;1.60;;
24637;SDS011;12773;50.162;8.548;2023-11-19T15:06:43;14.95;;;1.45;;
24637;SDS011;12773;50.162;8.548;2023-11-19T15:09:33;11.97;;;1.75;;
24637;SDS011;12773;50.162;8.548;2023-11-19T15:12:22;10.35;;;1.57;;
24637;SDS011;12773;50.162;8.548;2023-11-19T15:15:09;10.85;;;2.15;;
24637;SDS011;12773;50.162;8.548;2023-11-19T15:17:58;11.90;;;1.90;;
24637;SDS011;12773;50.162;8.548;2023-11-19T15:20:46;12.03;;;1.32;;
24637;SDS011;12773;50.162;8.548;2023-11-19T15:23:34;9.55;;;1.40;;
24637;SDS011;12773;50.162;8.548;2023-11-19T15:26:22;12.07;;;1.40;;
24637;SDS011;12773;50.162;8.548;2023-11-19T15:29:10;11.50;;;1.30;;
24637;SDS011;12773;50.162;8.548;2023-11-19T15:31:59;15.95;;;2.10;;
24637;SDS011;12773;50.162;8.548;2023-11-19T15:34:48;11.93;;;1.50;;
24637;SDS011;12773;50.162;8.548;2023-11-19T15:37:36;8.18;;;1.87;;
24637;SDS011;12773;50.162;8.548;2023-11-19T15:40:25;10.85;;;1.47;;
24637;SDS011;12773;50.162;8.548;2023-11-19T15:43:13;14.07;;;1.72;;
24637;SDS011;12773;50.162;8.548;2023-11-19T15:46:05;9.03;;;1.35;;
24637;SDS011;12773;50.162;8.548;2023-11-19T15:48:53;13.45;;;2.15;;
24637;SDS011;12773;50.162;8.548;2023-11-19T15:51:41;13.98;;;1.87;;
24637;SDS011;12773;50.162;8.548;2023-11-19T15:54:28;10.95;;;2.10;;
24637;SDS011;12773;50.162;8.548;2023-11-19T15:57:16;12.40;;;1.60;;
24637;SDS011;12773;50.162;8.548;2023-11-19T16:00:03;9.83;;;1.70;;
24637;SDS011;12773;50.162;8.548;2023-11-19T16:02:51;10.43;;;1.57;;
24637;SDS011;12773;50.162;8.548;2023-11-19T16:05:40;12.50;;;2.52;;
24637;SDS011;12773;50.162;8.548;2023-11-19T16:08:28;15.98;;;3.25;;
24637;SDS011;12773;50.162;8.548;2023-11-19T16:11:16;10.78;;;1.55;;
24637;SDS011;12773;50.162;8.548;2023-11-19T16:14:03;12.80;;;2.65;;
24637;SDS011;12773;50.162;8.548;2023-11-19T16:16:51;17.48;;;2.30;;
24637;SDS011;12773;50.162;8.548;2023-11-19T16:19:39;14.87;;;2.30;;
24637;SDS011;12773;50.162;8.548;2023-11-19T16:22:28;15.88;;;2.60;;
24637;SDS011;12773;50.162;8.548;2023-11-19T16:25:15;10.70;;;1.75;;
24637;SDS011;12773;50.162;8.548;2023-11-19T16:28:04;11.10;;;2.47;;
24637;SDS011;12773;50.162;8.548;2023-11-19T16:30:53;10.30;;;2.40;;
24637;SDS011;12773;50.162;8.548;2023-11-19T16:33:42;14.98;;;2.47;;
24637;SDS011;12773;50.162;8.548;2023-11-19T16:36:29;14.58;;;2.33;;
24637;SDS011;12773;50.162;8.548;2023-11-19T16:39:17;12.07;;;2.52;;
24637;SDS011;12773;50.162;8.548;2023-11-19T16:42:04;16.37;;;2.22;;
24637;SDS011;12773;50.162;8.548;2023-11-19T16:44:52;14.73;;;2.60;;
24637;SDS011;12773;50.162;8.548;2023-11-19T16:47:40;14.38;;;2.58;;
24637;SDS011;12773;50.162;8.548;2023-11-19T16:50:28;11.93;;;2.42;;